Time;durP1;ratioP1;P1;durP2;ratioP2;P2;SDS_P1;SDS_P2;PMS_P1;PMS_P2;Temp;Humidity;BMP_temperature;BMP_pressure;BME280_temperature;BME280_humidity;BME280_pressure;Samples;Min_cycle;Max_cycle;Signal;HPM_P1;HPM_P2
2021/08/22 00:02:00;;;;;;;10.20;9.10;;;21.10;85.10;;;;;;5068131;28;20503;-46
2021/08/22 00:04:27;;;;;;;10.20;9.10;;;21.10;85.30;;;;;;5070811;28;21587;-47
2021/08/22 00:06:54;;;;;;;9.70;8.70;;;21.10;85.40;;;;;;5064240;28;20740;-46
2021/08/22 00:09:21;;;;;;;9.17;7.80;;;21.10;85.50;;;;;;5068074;28;20817;-46
2021/08/22 00:11:48;;;;;;;8.53;7.63;;;21.10;85.70;;;;;;5070539;28;20457;-46
2021/08/22 00:14:15;;;;;;;10.67;8.47;;;21.00;85.80;;;;;;5067699;28;20457;-46
2021/08/22 00:16:41;;;;;;;9.83;8.50;;;21.00;85.90;;;;;;5055035;28;20447;-46
2021/08/22 00:19:08;;;;;;;12.47;9.17;;;21.00;86.00;;;;;;5066720;28;21020;-46
2021/08/22 00:21:35;;;;;;;10.83;8.93;;;21.00;86.20;;;;;;5071181;28;20494;-46
2021/08/22 00:24:02;;;;;;;10.30;9.17;;;21.00;86.40;;;;;;5069414;28;20847;-46
2021/08/22 00:26:29;;;;;;;12.63;8.77;;;21.00;86.60;;;;;;5063783;28;20446;-47
2021/08/22 00:28:55;;;;;;;10.60;9.47;;;21.00;86.60;;;;;;5067291;28;20458;-46
2021/08/22 00:31:22;;;;;;;10.13;7.83;;;21.00;86.80;;;;;;5050355;28;20473;-46
2021/08/22 00:33:49;;;;;;;8.87;8.07;;;21.00;86.60;;;;;;5066943;28;20933;-46
2021/08/22 00:36:15;;;;;;;10.27;8.73;;;21.00;86.60;;;;;;5064430;28;20462;-47
2021/08/22 00:38:44;;;;;;;11.90;8.90;;;20.90;86.70;;;;;;5066804;28;20462;-47
2021/08/22 00:41:12;;;;;;;9.87;8.87;;;20.90;86.70;;;;;;5051722;28;20458;-43
2021/08/22 00:43:39;;;;;;;14.23;9.47;;;20.90;86.90;;;;;;5051282;28;20861;-43
2021/08/22 00:46:05;;;;;;;10.23;8.47;;;20.90;86.90;;;;;;5053461;28;21869;-45
2021/08/22 00:48:32;;;;;;;10.40;8.63;;;20.90;87.00;;;;;;5051935;28;20449;-43
2021/08/22 00:50:59;;;;;;;8.20;7.37;;;20.90;86.90;;;;;;5054831;28;20807;-43
2021/08/22 00:53:27;;;;;;;8.77;7.87;;;20.90;87.00;;;;;;5068623;28;20458;-43
2021/08/22 00:55:57;;;;;;;11.27;8.40;;;20.90;86.90;;;;;;5050671;28;20568;-43
2021/08/22 00:58:25;;;;;;;8.60;7.70;;;20.80;86.90;;;;;;5064889;28;20504;-43
2021/08/22 01:00:53;;;;;;;8.50;7.40;;;20.80;86.90;;;;;;5048730;28;20457;-43
2021/08/22 01:03:43;;;;;;;11.17;9.27;;;20.80;86.80;;;;;;5068670;28;20487;-43
2021/08/22 01:06:48;;;;;;;9.13;8.00;;;20.80;86.90;;;;;;5069226;28;21266;-43
2021/08/22 01:09:45;;;;;;;9.20;7.60;;;20.80;86.90;;;;;;5027828;28;20458;-43
2021/08/22 01:12:21;;;;;;;7.50;6.80;;;20.80;86.80;;;;;;5046235;28;20468;-43
2021/08/22 01:14:51;;;;;;;7.93;6.63;;;20.80;86.30;;;;;;5066672;28;20458;-43
2021/08/22 01:17:20;;;;;;;7.80;6.60;;;20.80;86.20;;;;;;5070191;28;20543;-42
2021/08/22 01:20:15;;;;;;;8.13;7.33;;;20.80;86.30;;;;;;5067436;28;20467;-43
2021/08/22 01:22:43;;;;;;;10.10;8.27;;;20.70;86.50;;;;;;5064829;28;21027;-43
2021/08/22 01:25:12;;;;;;;10.33;7.43;;;20.70;86.60;;;;;;5066089;28;20488;-45
2021/08/22 01:27:41;;;;;;;8.47;6.97;;;20.70;86.70;;;;;;5064427;28;20466;-45
2021/08/22 01:30:11;;;;;;;8.23;7.20;;;20.70;86.70;;;;;;5065183;28;20843;-45
2021/08/22 01:32:40;;;;;;;7.43;6.30;;;20.60;86.70;;;;;;5067876;28;20458;-45
2021/08/22 01:35:09;;;;;;;7.67;6.87;;;20.60;86.80;;;;;;5078397;28;20456;-45
2021/08/22 01:37:37;;;;;;;7.60;6.80;;;20.60;86.80;;;;;;5067621;28;20537;-45
2021/08/22 01:40:07;;;;;;;7.70;6.90;;;20.60;86.90;;;;;;5048912;28;20959;-45
2021/08/22 01:42:35;;;;;;;8.87;6.27;;;20.60;86.90;;;;;;5062764;28;20489;-45
2021/08/22 01:45:04;;;;;;;7.30;6.60;;;20.60;86.90;;;;;;5063708;28;20464;-45
2021/08/22 01:47:33;;;;;;;10.53;6.83;;;20.60;86.90;;;;;;5064167;28;20806;-46
2021/08/22 01:50:00;;;;;;;7.60;5.70;;;20.50;87.00;;;;;;5067267;28;20557;-45
2021/08/22 01:52:30;;;;;;;6.43;5.83;;;20.50;87.00;;;;;;5067000;28;20468;-45
2021/08/22 01:54:57;;;;;;;8.17;6.07;;;20.50;86.80;;;;;;5035809;28;20460;-45
2021/08/22 01:57:23;;;;;;;6.80;6.00;;;20.50;86.70;;;;;;5049941;28;20469;-45
2021/08/22 01:59:50;;;;;;;8.40;6.93;;;20.40;86.70;;;;;;5049866;28;20957;-45
2021/08/22 02:02:17;;;;;;;7.20;6.00;;;20.40;86.70;;;;;;5062474;28;20756;-43
2021/08/22 02:04:49;;;;;;;8.67;6.13;;;20.40;86.80;;;;;;5066306;28;20454;-43
2021/08/22 02:07:21;;;;;;;5.83;5.23;;;20.30;86.80;;;;;;5060351;28;20454;-43
2021/08/22 02:10:06;;;;;;;5.60;5.10;;;20.30;86.90;;;;;;5078679;28;20461;-43
2021/08/22 02:12:34;;;;;;;5.73;5.17;;;20.30;86.90;;;;;;5073572;28;20466;-43
2021/08/22 02:15:12;;;;;;;7.37;5.17;;;20.30;86.80;;;;;;5060533;28;21028;-43
2021/08/22 02:17:45;;;;;;;7.77;5.47;;;20.30;86.80;;;;;;5070672;28;20486;-43
2021/08/22 02:20:12;;;;;;;5.93;5.33;;;20.20;86.70;;;;;;5055935;28;20460;-43
2021/08/22 02:22:45;;;;;;;6.10;5.33;;;20.20;86.70;;;;;;5046625;28;20481;-43
2021/08/22 02:25:13;;;;;;;8.73;5.90;;;20.20;86.70;;;;;;5067832;28;20457;-43
2021/08/22 02:27:40;;;;;;;7.40;5.37;;;20.20;86.70;;;;;;5065029;28;20669;-43
2021/08/22 02:30:08;;;;;;;5.67;5.07;;;20.20;86.70;;;;;;5068327;28;20465;-43
2021/08/22 02:32:35;;;;;;;6.17;5.40;;;20.10;86.60;;;;;;5049249;28;21035;-43
2021/08/22 02:35:05;;;;;;;8.47;5.97;;;20.10;86.70;;;;;;5051147;28;20450;-43
2021/08/22 02:37:33;;;;;;;6.20;5.43;;;20.10;86.60;;;;;;5071983;28;20460;-43
2021/08/22 02:40:00;;;;;;;6.03;4.67;;;20.10;86.60;;;;;;5064444;28;20966;-46
2021/08/22 02:42:32;;;;;;;7.70;6.37;;;20.10;86.70;;;;;;5065273;28;20450;-47
2021/08/22 02:44:58;;;;;;;6.53;4.77;;;20.10;86.70;;;;;;5053649;28;20849;-46
2021/08/22 02:47:25;;;;;;;8.40;5.80;;;20.10;86.70;;;;;;5042774;28;20468;-46
2021/08/22 02:49:52;;;;;;;6.70;5.57;;;20.10;86.80;;;;;;5059680;28;20451;-46
2021/08/22 02:52:19;;;;;;;6.00;5.50;;;20.10;86.90;;;;;;5059553;28;20546;-46
2021/08/22 02:54:45;;;;;;;6.60;5.47;;;20.10;87.00;;;;;;5068212;28;20456;-46
2021/08/22 02:57:12;;;;;;;6.90;5.90;;;20.10;87.20;;;;;;5048558;28;20473;-46
2021/08/22 02:59:41;;;;;;;6.23;5.33;;;20.10;87.20;;;;;;5058769;28;20460;-46
2021/08/22 03:02:08;;;;;;;6.80;4.67;;;20.00;87.30;;;;;;5065738;28;20637;-47
2021/08/22 03:04:34;;;;;;;8.03;5.20;;;20.00;87.30;;;;;;5067816;28;20981;-46
2021/08/22 03:07:01;;;;;;;5.83;5.23;;;20.00;87.20;;;;;;5063980;28;20511;-47
2021/08/22 03:09:28;;;;;;;6.17;5.40;;;20.00;87.20;;;;;;5051891;28;20468;-46
2021/08/22 03:11:55;;;;;;;6.20;5.53;;;20.00;87.20;;;;;;5065307;28;20473;-46
2021/08/22 03:14:22;;;;;;;7.23;5.70;;;20.00;87.20;;;;;;5062301;28;21117;-46
2021/08/22 03:16:48;;;;;;;6.20;5.10;;;20.00;87.20;;;;;;5065903;28;20460;-46
2021/08/22 03:19:15;;;;;;;6.30;4.83;;;20.00;87.10;;;;;;5046391;28;20899;-46
2021/08/22 03:21:45;;;;;;;6.20;4.93;;;20.00;87.10;;;;;;5050119;28;20484;-46
2021/08/22 03:24:12;;;;;;;6.13;5.03;;;20.00;87.00;;;;;;5053938;28;20488;-46
2021/08/22 03:26:42;;;;;;;5.93;4.57;;;19.90;86.90;;;;;;5065948;28;20454;-46
2021/08/22 03:29:10;;;;;;;7.37;5.40;;;20.00;86.60;;;;;;5059811;28;20449;-45
2021/08/22 03:31:37;;;;;;;7.13;4.93;;;19.90;86.50;;;;;;5064600;28;20820;-45
2021/08/22 03:34:06;;;;;;;6.90;5.10;;;19.90;86.40;;;;;;5069003;28;20547;-45
2021/08/22 03:36:33;;;;;;;6.67;4.80;;;19.90;86.50;;;;;;5068855;28;20467;-45
2021/08/22 03:38:59;;;;;;;7.57;5.23;;;19.90;86.30;;;;;;5065205;28;20458;-45
2021/08/22 03:41:26;;;;;;;5.33;4.50;;;19.80;86.10;;;;;;5067172;28;20994;-45
2021/08/22 03:43:53;;;;;;;6.70;5.20;;;19.80;85.70;;;;;;5067730;28;20846;-46
2021/08/22 03:46:20;;;;;;;6.03;5.53;;;19.80;85.80;;;;;;5070664;28;20451;-46
2021/08/22 03:48:46;;;;;;;5.53;4.40;;;19.80;85.80;;;;;;5070421;28;20553;-46
2021/08/22 03:51:13;;;;;;;6.03;5.23;;;19.80;85.90;;;;;;5073850;28;20465;-46
2021/08/22 03:53:40;;;;;;;6.00;5.40;;;19.80;85.90;;;;;;5068906;28;21096;-46
2021/08/22 03:56:07;;;;;;;6.20;4.90;;;19.80;85.90;;;;;;5057448;28;20840;-43
2021/08/22 03:58:33;;;;;;;8.03;5.50;;;19.70;86.00;;;;;;5052959;28;20456;-43
2021/08/22 04:01:00;;;;;;;6.57;5.20;;;19.70;86.00;;;;;;5071614;28;20463;-43
2021/08/22 04:03:28;;;;;;;7.20;5.70;;;19.70;86.10;;;;;;5069301;28;20497;-43
2021/08/22 04:05:55;;;;;;;8.20;6.07;;;19.70;86.10;;;;;;5070807;28;20468;-43
2021/08/22 04:08:24;;;;;;;7.60;5.43;;;19.60;86.10;;;;;;5072055;28;20462;-43
2021/08/22 04:10:52;;;;;;;6.57;4.90;;;19.60;86.20;;;;;;5069312;28;20966;-43
2021/08/22 04:13:19;;;;;;;7.00;5.57;;;19.60;86.30;;;;;;5069831;28;20808;-43
2021/08/22 04:15:47;;;;;;;7.63;5.80;;;19.50;86.40;;;;;;5058687;28;20468;-43
2021/08/22 04:18:14;;;;;;;8.70;5.90;;;19.50;86.50;;;;;;5051088;28;20462;-43
2021/08/22 04:20:40;;;;;;;7.63;5.80;;;19.50;86.60;;;;;;5054519;28;20503;-43
2021/08/22 04:23:08;;;;;;;6.17;5.40;;;19.50;86.60;;;;;;5070339;28;20464;-43
2021/08/22 04:25:35;;;;;;;5.63;5.07;;;19.50;86.70;;;;;;5067648;28;20461;-43
2021/08/22 04:28:02;;;;;;;9.83;5.80;;;19.50;86.80;;;;;;5051683;28;20889;-43
2021/08/22 04:30:28;;;;;;;5.90;4.93;;;19.40;86.80;;;;;;5069462;28;20476;-43
2021/08/22 04:32:55;;;;;;;13.77;5.50;;;19.40;86.90;;;;;;5070093;28;20990;-43
2021/08/22 04:35:22;;;;;;;7.33;6.10;;;19.40;87.00;;;;;;5069639;28;20527;-43
2021/08/22 04:37:49;;;;;;;7.40;5.67;;;19.40;87.00;;;;;;5066976;28;20458;-43
2021/08/22 04:40:15;;;;;;;7.53;5.40;;;19.40;87.00;;;;;;5061603;28;20461;-43
2021/08/22 04:42:42;;;;;;;6.87;5.90;;;19.40;87.00;;;;;;5070667;28;20795;-43
2021/08/22 04:45:09;;;;;;;7.80;5.30;;;19.30;87.00;;;;;;5070533;28;20486;-43
2021/08/22 04:47:36;;;;;;;5.53;4.97;;;19.30;87.00;;;;;;5034894;28;20462;-43
2021/08/22 04:50:04;;;;;;;9.37;4.70;;;19.30;87.00;;;;;;5066831;28;20593;-43
2021/08/22 04:52:33;;;;;;;8.40;5.73;;;19.30;86.90;;;;;;5058983;28;20454;-43
2021/08/22 04:55:04;;;;;;;7.70;6.43;;;19.30;86.90;;;;;;5071549;28;20455;-43
2021/08/22 04:57:33;;;;;;;7.10;5.80;;;19.30;86.80;;;;;;5068670;28;20872;-43
2021/08/22 05:00:00;;;;;;;6.93;5.33;;;19.30;86.80;;;;;;5069697;28;20461;-43
2021/08/22 05:02:29;;;;;;;5.80;5.20;;;19.30;86.80;;;;;;5059599;28;21066;-43
2021/08/22 05:04:56;;;;;;;8.80;5.67;;;19.20;86.70;;;;;;5069442;28;20977;-43
2021/08/22 05:07:23;;;;;;;8.70;5.63;;;19.20;86.70;;;;;;5061269;28;20457;-43
2021/08/22 05:09:49;;;;;;;6.87;5.67;;;19.20;86.70;;;;;;5071999;28;20452;-43
2021/08/22 05:12:16;;;;;;;6.20;5.60;;;19.20;86.80;;;;;;5069007;28;20455;-43
2021/08/22 05:14:43;;;;;;;6.63;5.30;;;19.20;86.80;;;;;;5069075;28;20462;-43
2021/08/22 05:17:11;;;;;;;7.27;5.63;;;19.20;86.80;;;;;;5067673;28;20963;-43
2021/08/22 05:19:40;;;;;;;9.17;5.70;;;19.20;86.90;;;;;;5067080;28;20970;-43
2021/08/22 05:22:08;;;;;;;7.23;6.53;;;19.20;86.90;;;;;;5067274;28;20473;-43
2021/08/22 05:24:34;;;;;;;11.33;6.50;;;19.30;87.00;;;;;;5065063;28;20494;-43
2021/08/22 05:27:01;;;;;;;9.70;6.60;;;19.30;87.20;;;;;;5065958;28;20461;-43
2021/08/22 05:29:30;;;;;;;8.63;5.50;;;19.30;87.20;;;;;;5067895;28;20480;-43
2021/08/22 05:31:57;;;;;;;7.70;6.93;;;19.30;87.30;;;;;;5069054;28;20457;-43
2021/08/22 05:34:24;;;;;;;6.57;5.67;;;19.40;87.40;;;;;;5065818;28;20644;-43
2021/08/22 05:36:51;;;;;;;8.50;6.00;;;19.50;87.40;;;;;;5065760;28;20524;-43
2021/08/22 05:39:19;;;;;;;6.53;5.90;;;19.50;87.50;;;;;;5064173;28;20846;-43
2021/08/22 05:41:46;;;;;;;8.87;6.37;;;19.60;87.40;;;;;;5067976;28;20458;-43
2021/08/22 05:44:13;;;;;;;9.83;7.20;;;19.60;87.30;;;;;;5049233;28;20730;-43
2021/08/22 05:46:39;;;;;;;10.23;6.73;;;19.60;87.20;;;;;;5078080;28;20453;-43
2021/08/22 05:49:06;;;;;;;9.17;6.93;;;19.70;87.10;;;;;;5065702;28;20449;-43
2021/08/22 05:51:33;;;;;;;7.43;5.80;;;19.70;87.10;;;;;;5065737;28;21054;-43
2021/08/22 05:53:59;;;;;;;7.00;6.00;;;19.70;87.00;;;;;;5057756;28;20464;-43
2021/08/22 05:56:26;;;;;;;8.23;6.00;;;19.70;87.10;;;;;;5064297;28;20988;-43
2021/08/22 05:58:53;;;;;;;7.77;6.00;;;19.70;87.20;;;;;;5068405;28;20453;-43
2021/08/22 06:01:20;;;;;;;8.13;6.70;;;19.70;87.20;;;;;;5069359;28;20461;-43
2021/08/22 06:03:47;;;;;;;8.77;7.17;;;19.70;87.20;;;;;;5047827;28;20483;-43
2021/08/22 06:06:14;;;;;;;11.20;6.90;;;19.80;87.20;;;;;;5070997;28;20446;-43
2021/08/22 06:08:41;;;;;;;9.77;5.77;;;19.80;87.20;;;;;;5069668;28;20460;-43
2021/08/22 06:11:08;;;;;;;7.77;6.97;;;19.80;87.20;;;;;;5078054;28;20468;-43
2021/08/22 06:13:34;;;;;;;10.97;8.50;;;19.90;87.10;;;;;;5077447;28;20464;-44
2021/08/22 06:16:02;;;;;;;8.97;7.00;;;19.90;86.80;;;;;;5045329;28;20544;-43
2021/08/22 06:18:28;;;;;;;9.23;6.60;;;20.00;86.70;;;;;;5061241;28;20462;-43
2021/08/22 06:20:57;;;;;;;8.07;6.30;;;20.00;86.70;;;;;;5065248;28;20493;-43
2021/08/22 06:23:24;;;;;;;10.73;7.07;;;20.00;86.40;;;;;;5067840;28;20460;-43
2021/08/22 06:25:51;;;;;;;12.40;8.00;;;20.00;86.40;;;;;;5071994;28;20440;-43
2021/08/22 06:28:18;;;;;;;12.13;7.07;;;20.10;86.30;;;;;;5071062;28;20445;-43
2021/08/22 06:30:45;;;;;;;12.20;7.03;;;20.20;85.60;;;;;;5066811;28;20468;-43
2021/08/22 06:33:12;;;;;;;8.90;6.90;;;20.20;85.00;;;;;;5049610;28;20453;-43
2021/08/22 06:35:39;;;;;;;7.03;6.33;;;20.20;84.80;;;;;;5067452;28;20465;-43
2021/08/22 06:38:05;;;;;;;7.97;6.03;;;20.20;85.00;;;;;;5080340;28;20800;-43
2021/08/22 06:40:35;;;;;;;8.40;6.80;;;20.20;85.10;;;;;;5071211;28;20440;-43
2021/08/22 06:43:01;;;;;;;8.43;7.33;;;20.20;85.30;;;;;;5051799;28;20449;-43
2021/08/22 06:45:28;;;;;;;10.37;6.80;;;20.20;85.40;;;;;;5068240;28;20493;-43
2021/08/22 06:47:55;;;;;;;8.43;5.93;;;20.20;85.40;;;;;;5069028;28;20446;-43
2021/08/22 06:50:23;;;;;;;8.17;7.00;;;20.20;85.10;;;;;;5046655;28;20454;-43
2021/08/22 06:52:51;;;;;;;12.40;6.97;;;20.20;85.30;;;;;;5069185;28;20574;-43
2021/08/22 06:55:19;;;;;;;12.10;7.30;;;20.20;85.60;;;;;;5078989;28;20879;-43
2021/08/22 06:57:47;;;;;;;10.20;7.10;;;20.20;85.60;;;;;;5066485;28;20456;-43
2021/08/22 07:00:15;;;;;;;7.83;6.60;;;20.20;85.70;;;;;;5062938;28;20465;-43
2021/08/22 07:02:44;;;;;;;10.80;7.90;;;20.30;85.70;;;;;;5064626;28;20468;-43
2021/08/22 07:05:12;;;;;;;8.53;7.60;;;20.30;85.70;;;;;;5072258;28;20481;-43
2021/08/22 07:07:39;;;;;;;8.80;6.93;;;20.40;85.60;;;;;;5072922;28;20472;-43
2021/08/22 07:10:06;;;;;;;8.77;6.67;;;20.40;85.40;;;;;;5073405;28;20484;-43
2021/08/22 07:12:33;;;;;;;8.40;6.60;;;20.50;84.80;;;;;;5064686;28;20941;-46
2021/08/22 07:15:01;;;;;;;8.03;6.80;;;20.60;84.50;;;;;;5048089;28;20449;-46
2021/08/22 07:17:28;;;;;;;11.40;6.93;;;20.60;84.50;;;;;;5074701;28;20508;-46
2021/08/22 07:19:54;;;;;;;8.93;7.60;;;20.60;84.80;;;;;;5061214;28;20944;-47
2021/08/22 07:22:21;;;;;;;8.60;7.00;;;20.70;84.50;;;;;;5069967;28;20492;-46
2021/08/22 07:24:48;;;;;;;10.03;6.30;;;20.70;84.50;;;;;;5053563;28;20485;-46
2021/08/22 07:27:15;;;;;;;9.57;6.53;;;20.80;84.20;;;;;;5052532;28;20739;-46
2021/08/22 07:29:43;;;;;;;10.90;6.60;;;20.90;83.60;;;;;;5067070;28;20457;-47
2021/08/22 07:32:10;;;;;;;7.10;6.30;;;20.90;83.50;;;;;;5073885;28;20455;-47
2021/08/22 07:34:37;;;;;;;8.53;5.87;;;20.90;83.60;;;;;;5071596;28;20539;-46
2021/08/22 07:37:04;;;;;;;6.80;6.10;;;21.00;83.40;;;;;;5068550;28;20465;-46
2021/08/22 07:39:31;;;;;;;7.60;6.90;;;21.00;82.00;;;;;;5054733;28;21078;-47
2021/08/22 07:41:59;;;;;;;8.73;6.27;;;21.00;82.00;;;;;;5074090;28;20841;-47
2021/08/22 07:44:26;;;;;;;7.27;5.93;;;21.00;82.20;;;;;;5044142;28;20493;-43
2021/08/22 07:46:55;;;;;;;7.20;6.30;;;21.00;83.00;;;;;;5063278;28;20444;-45
2021/08/22 07:49:22;;;;;;;8.20;6.87;;;21.00;83.00;;;;;;5070828;28;20455;-43
2021/08/22 07:51:49;;;;;;;6.97;6.20;;;21.00;83.10;;;;;;5073438;28;20438;-43
2021/08/22 07:54:16;;;;;;;7.90;6.30;;;21.10;82.90;;;;;;5055106;28;21003;-43
2021/08/22 07:56:43;;;;;;;7.03;5.87;;;21.10;82.80;;;;;;5071572;28;20457;-43
2021/08/22 07:59:10;;;;;;;6.37;5.27;;;21.20;81.60;;;;;;5049414;28;20440;-43
2021/08/22 08:01:37;;;;;;;5.87;5.27;;;21.10;81.60;;;;;;5060904;28;20454;-43
2021/08/22 08:04:05;;;;;;;7.10;5.80;;;21.10;81.70;;;;;;5043111;28;20445;-43
2021/08/22 08:06:32;;;;;;;7.80;5.50;;;21.10;82.00;;;;;;5069983;28;20541;-43
2021/08/22 08:09:00;;;;;;;6.57;5.70;;;21.20;81.50;;;;;;5069627;28;20457;-43
2021/08/22 08:11:27;;;;;;;6.77;5.80;;;21.20;81.20;;;;;;5069697;28;20464;-43
2021/08/22 08:13:54;;;;;;;6.30;5.70;;;21.20;81.40;;;;;;5070653;28;20532;-43
2021/08/22 08:16:21;;;;;;;8.03;5.60;;;21.20;81.40;;;;;;5070173;28;20962;-43
2021/08/22 08:18:48;;;;;;;11.60;5.67;;;21.30;81.30;;;;;;5069364;28;20449;-43
2021/08/22 08:21:15;;;;;;;6.40;5.63;;;21.30;81.20;;;;;;5069245;28;20474;-43
2021/08/22 08:23:42;;;;;;;16.50;8.33;;;21.30;81.20;;;;;;5065140;28;20457;-43
2021/08/22 08:26:09;;;;;;;7.30;6.00;;;21.30;81.20;;;;;;5069840;28;20480;-43
2021/08/22 08:28:36;;;;;;;7.03;6.33;;;21.30;81.00;;;;;;5046600;28;20486;-43
2021/08/22 08:31:03;;;;;;;6.63;5.83;;;21.40;80.80;;;;;;5064818;28;20463;-43
2021/08/22 08:33:30;;;;;;;5.00;4.30;;;21.40;81.00;;;;;;5050513;28;20447;-43
2021/08/22 08:35:59;;;;;;;5.40;4.90;;;21.40;81.10;;;;;;5061837;28;20445;-44
2021/08/22 08:38:26;;;;;;;7.70;5.73;;;21.50;81.20;;;;;;5073613;28;20458;-43
2021/08/22 08:40:53;;;;;;;6.73;5.70;;;21.50;81.00;;;;;;5057405;28;20442;-43
2021/08/22 08:43:23;;;;;;;5.10;4.60;;;21.50;81.00;;;;;;5063057;28;20808;-43
2021/08/22 08:45:50;;;;;;;5.23;4.73;;;21.60;80.80;;;;;;5080138;28;20497;-43
2021/08/22 08:48:41;;;;;;;6.37;5.23;;;21.60;80.60;;;;;;5068421;28;20547;-43
2021/08/22 08:51:14;;;;;;;6.23;5.57;;;21.70;80.40;;;;;;5074089;28;20430;-44
2021/08/22 08:54:00;;;;;;;6.90;6.03;;;21.70;80.00;;;;;;5067614;28;20487;-43
2021/08/22 08:56:34;;;;;;;6.53;5.13;;;21.80;79.70;;;;;;5071004;28;20441;-44
2021/08/22 08:59:01;;;;;;;9.93;6.20;;;21.80;79.60;;;;;;5068304;28;20460;-43
2021/08/22 09:01:27;;;;;;;7.17;5.80;;;21.80;79.50;;;;;;5073005;28;20464;-43
2021/08/22 09:04:43;;;;;;;7.03;5.67;;;21.90;78.90;;;;;;5074218;28;20453;-43
2021/08/22 09:07:28;;;;;;;7.10;5.20;;;21.90;78.20;;;;;;5011352;28;20818;-43
2021/08/22 09:10:22;;;;;;;7.17;5.07;;;21.90;78.00;;;;;;5067497;28;20482;-43
2021/08/22 09:13:20;;;;;;;8.50;5.07;;;21.90;77.90;;;;;;5058150;28;20499;-43
2021/08/22 09:16:24;;;;;;;7.93;4.87;;;21.80;78.00;;;;;;5064149;28;20540;-44
2021/08/22 09:19:02;;;;;;;6.80;4.90;;;21.80;78.30;;;;;;5061553;28;20500;-43
2021/08/22 09:22:16;;;;;;;5.63;4.50;;;21.70;78.50;;;;;;5070854;28;20551;-43
2021/08/22 09:25:10;;;;;;;4.50;4.17;;;21.80;78.10;;;;;;5050048;28;20481;-43
2021/08/22 09:27:51;;;;;;;5.37;4.13;;;21.80;77.90;;;;;;5065477;28;20441;-43
2021/08/22 09:30:43;;;;;;;6.43;4.77;;;21.80;78.00;;;;;;5068054;28;20501;-43
2021/08/22 09:33:25;;;;;;;8.33;5.07;;;21.90;78.30;;;;;;5068315;28;20446;-43
2021/08/22 09:36:24;;;;;;;6.53;5.93;;;22.00;78.00;;;;;;5063863;28;21177;-43
2021/08/22 09:39:28;;;;;;;7.03;5.30;;;22.10;77.70;;;;;;5013227;28;20445;-43
2021/08/22 09:42:32;;;;;;;5.10;4.60;;;22.20;77.30;;;;;;5063599;28;20450;-43
2021/08/22 09:45:36;;;;;;;5.80;5.20;;;22.20;75.80;;;;;;5069038;28;20484;-43
2021/08/22 09:48:37;;;;;;;6.10;4.63;;;22.20;76.40;;;;;;5066471;28;20461;-43
2021/08/22 09:51:34;;;;;;;6.43;4.70;;;22.20;75.50;;;;;;5068400;28;20825;-43
2021/08/22 09:54:35;;;;;;;7.50;4.97;;;22.20;75.80;;;;;;5070016;28;20457;-43
2021/08/22 09:57:32;;;;;;;5.63;5.07;;;22.30;76.30;;;;;;5065805;28;20457;-43
2021/08/22 10:00:14;;;;;;;5.50;4.50;;;22.40;75.90;;;;;;5065168;28;20884;-43
2021/08/22 10:02:59;;;;;;;4.80;4.30;;;22.70;74.90;;;;;;5067884;28;20462;-43
2021/08/22 10:06:16;;;;;;;6.07;4.27;;;23.00;74.00;;;;;;5071289;28;20511;-43
2021/08/22 10:09:04;;;;;;;4.63;4.13;;;23.70;71.50;;;;;;5063328;28;20445;-43
2021/08/22 10:11:46;;;;;;;5.73;4.50;;;24.10;70.60;;;;;;5068862;28;20503;-43
2021/08/22 10:14:13;;;;;;;7.10;6.40;;;24.30;69.70;;;;;;5066415;28;20466;-43
2021/08/22 10:16:40;;;;;;;6.80;5.30;;;24.40;69.50;;;;;;5055197;28;20457;-43
2021/08/22 10:19:09;;;;;;;4.53;4.13;;;24.30;68.10;;;;;;5072986;28;20441;-43
2021/08/22 10:21:36;;;;;;;10.47;5.03;;;24.20;68.10;;;;;;5061163;28;20479;-43
2021/08/22 10:24:08;;;;;;;6.03;5.40;;;24.10;68.20;;;;;;5065870;28;20455;-44
2021/08/22 10:26:57;;;;;;;7.80;5.47;;;24.00;68.80;;;;;;5068879;28;20490;-43
2021/08/22 10:29:49;;;;;;;7.30;5.00;;;23.90;67.90;;;;;;5065015;28;20567;-43
2021/08/22 10:32:16;;;;;;;6.63;5.07;;;23.80;68.90;;;;;;5061482;28;20458;-43
2021/08/22 10:34:44;;;;;;;5.73;5.13;;;23.70;69.50;;;;;;5070493;28;20540;-43
2021/08/22 10:37:31;;;;;;;5.13;4.63;;;23.60;69.00;;;;;;5041808;28;20922;-43
2021/08/22 10:40:18;;;;;;;6.13;5.17;;;23.60;69.60;;;;;;5075728;28;20467;-43
2021/08/22 10:42:48;;;;;;;5.40;4.83;;;23.50;70.00;;;;;;5057597;28;20455;-43
2021/08/22 10:45:39;;;;;;;6.10;5.50;;;23.50;70.50;;;;;;5070345;28;21237;-44
2021/08/22 10:48:07;;;;;;;6.00;5.40;;;23.50;70.50;;;;;;5070592;28;20824;-43
2021/08/22 10:50:59;;;;;;;6.77;5.17;;;23.40;71.60;;;;;;5071064;28;20555;-43
2021/08/22 10:53:27;;;;;;;5.60;5.10;;;23.30;73.40;;;;;;5073581;28;20450;-43
2021/08/22 10:55:55;;;;;;;8.93;6.03;;;23.10;73.10;;;;;;5070518;28;20937;-43
2021/08/22 10:59:00;;;;;;;10.17;8.60;;;23.00;74.10;;;;;;5055123;28;20457;-43
2021/08/22 11:01:35;;;;;;;8.37;7.53;;;22.90;75.60;;;;;;5070306;28;20467;-43
2021/08/22 11:04:09;;;;;;;16.27;14.70;;;22.80;76.00;;;;;;5076689;28;20436;-43
2021/08/22 11:06:52;;;;;;;18.30;13.87;;;22.70;76.60;;;;;;5077667;28;20481;-43
2021/08/22 11:09:37;;;;;;;8.00;7.20;;;22.70;77.00;;;;;;5060290;28;20445;-43
2021/08/22 11:12:30;;;;;;;10.20;8.10;;;22.70;77.40;;;;;;5072979;28;20536;-43
2021/08/22 11:14:59;;;;;;;7.80;7.00;;;22.70;77.50;;;;;;5067430;28;20536;-43
2021/08/22 11:17:27;;;;;;;9.83;6.00;;;22.70;76.70;;;;;;5073528;28;20484;-43
2021/08/22 11:20:12;;;;;;;5.33;4.77;;;22.70;76.10;;;;;;5074757;28;20954;-43
2021/08/22 11:22:39;;;;;;;3.73;3.40;;;22.70;75.30;;;;;;5072394;28;20457;-43
2021/08/22 11:25:07;;;;;;;4.20;3.50;;;22.60;72.90;;;;;;5072800;28;20485;-43
2021/08/22 11:27:34;;;;;;;3.97;3.60;;;22.60;72.10;;;;;;5073402;28;20994;-43
2021/08/22 11:30:05;;;;;;;3.50;3.20;;;22.60;72.40;;;;;;5073771;28;20541;-43
2021/08/22 11:32:32;;;;;;;3.20;2.90;;;22.60;72.30;;;;;;5066901;28;20932;-43
2021/08/22 11:35:29;;;;;;;3.53;3.23;;;22.60;72.40;;;;;;5071641;28;20982;-43
2021/08/22 11:38:00;;;;;;;3.17;2.63;;;22.70;73.00;;;;;;5034275;28;20449;-43
2021/08/22 11:40:28;;;;;;;3.73;3.00;;;22.80;73.10;;;;;;5053493;28;20454;-44
2021/08/22 11:43:00;;;;;;;4.20;2.90;;;22.90;73.10;;;;;;5073884;28;20536;-43
2021/08/22 11:45:31;;;;;;;5.40;2.80;;;23.00;71.40;;;;;;5072396;28;20474;-43
2021/08/22 11:47:59;;;;;;;3.50;2.90;;;23.10;71.10;;;;;;5063860;28;20453;-43
2021/08/22 11:50:34;;;;;;;4.80;3.63;;;23.20;70.90;;;;;;5064359;28;20461;-43
2021/08/22 11:53:03;;;;;;;3.40;3.10;;;23.20;70.70;;;;;;5074731;28;20450;-43
2021/08/22 11:55:32;;;;;;;4.27;3.73;;;23.10;70.20;;;;;;5060221;28;20465;-43
2021/08/22 11:58:20;;;;;;;3.93;3.53;;;23.10;70.70;;;;;;5053105;28;20538;-43
2021/08/22 12:00:51;;;;;;;4.90;4.00;;;23.10;73.00;;;;;;5072955;28;20548;-43
2021/08/22 12:03:25;;;;;;;4.17;3.77;;;23.00;73.70;;;;;;5071734;28;20525;-43
2021/08/22 12:05:59;;;;;;;4.60;4.07;;;23.00;73.80;;;;;;5065656;28;21045;-43
2021/08/22 12:08:28;;;;;;;4.20;3.53;;;22.90;74.40;;;;;;5072759;28;20947;-43
2021/08/22 12:11:09;;;;;;;4.97;4.50;;;22.90;74.80;;;;;;5071564;28;20962;-43
2021/08/22 12:13:43;;;;;;;4.20;3.80;;;22.90;74.30;;;;;;5054032;28;20460;-43
2021/08/22 12:16:25;;;;;;;4.10;3.70;;;22.90;74.20;;;;;;5069385;28;20468;-43
2021/08/22 12:18:54;;;;;;;6.50;3.93;;;22.90;73.60;;;;;;5069810;28;20467;-43
2021/08/22 12:21:22;;;;;;;4.73;4.20;;;23.00;73.20;;;;;;5070273;28;21011;-43
2021/08/22 12:23:52;;;;;;;4.40;3.67;;;23.00;72.40;;;;;;5071662;28;20456;-43
2021/08/22 12:26:33;;;;;;;4.23;3.83;;;23.00;72.60;;;;;;5053168;28;20495;-44
2021/08/22 12:29:09;;;;;;;4.10;3.77;;;23.10;72.90;;;;;;5069818;28;20518;-43
2021/08/22 12:31:40;;;;;;;3.87;3.53;;;23.10;73.40;;;;;;5055743;28;20464;-44
2021/08/22 12:34:09;;;;;;;5.63;4.00;;;23.10;73.60;;;;;;5069198;28;20463;-43
2021/08/22 12:36:44;;;;;;;5.13;3.30;;;23.10;73.50;;;;;;5052592;28;20453;-43
2021/08/22 12:39:14;;;;;;;3.67;3.23;;;23.20;72.80;;;;;;5069805;28;20461;-43
2021/08/22 12:41:47;;;;;;;5.00;3.00;;;23.30;71.60;;;;;;5067179;28;20468;-43
2021/08/22 12:44:25;;;;;;;4.43;3.30;;;23.40;72.10;;;;;;5069748;28;20551;-43
2021/08/22 12:46:55;;;;;;;3.37;2.90;;;23.40;70.90;;;;;;5068681;28;20493;-43
2021/08/22 12:49:23;;;;;;;3.50;3.10;;;23.50;69.90;;;;;;5069576;28;21000;-43
2021/08/22 12:51:55;;;;;;;3.30;2.27;;;23.50;69.60;;;;;;5072049;28;20457;-43
2021/08/22 12:54:24;;;;;;;2.50;2.20;;;23.50;68.50;;;;;;5082011;28;20455;-44
2021/08/22 12:56:52;;;;;;;2.53;2.33;;;23.50;67.90;;;;;;5066358;28;20480;-43
2021/08/22 12:59:19;;;;;;;4.50;2.50;;;23.50;68.00;;;;;;5051680;28;20460;-43
2021/08/22 13:01:47;;;;;;;3.70;2.30;;;23.50;68.70;;;;;;5070466;28;20453;-43
2021/08/22 13:04:15;;;;;;;2.43;2.10;;;23.50;68.30;;;;;;5069451;28;20445;-43
2021/08/22 13:06:46;;;;;;;3.07;2.40;;;23.50;68.30;;;;;;5066252;28;20505;-43
2021/08/22 13:09:13;;;;;;;2.40;2.20;;;23.50;68.80;;;;;;5072001;28;20451;-43